الصفحة الرئيسية
METAR-TAF:

METAR-TAF

مطار :

مرسية, إسبانيا

دائرة عرض: 37-47N, خط طول: 000-48W, ارتفاع: 5 متر

مراقبة الطقس الحالي

تاريخ ووقت الإصدار 20 دقيقة قبل الساعة 09:00UTC
ريح 5 عقدة من الشرق, الاتجاه يتراوح بين الشرق/الشمال الشرقي و الجنوب/الجنوب الشرقي
درجة الحرارة 27°درجة مئوية
الرطوبة 70%
ضغط 1021 hPa
الرؤية 10 كم أو أكثر
غيوم قليلة على ارتفاع 1600 قدم
غيوم متفرقة على ارتفاع 2200 قدم

METAR: LELC 040900Z 10005KT 060V150 9999 FEW016 SCT022 27/21 Q1021 NOSIG

زمن: 11:20 (09:20 UTC)

توقعات

تاريخ ووقت الإصدار 4ساعات و 20 دقيقة قبل الساعة 05:00UTC
التوقعات صالحة من04 الساعة 06 UTC إلى 05 الساعة 06 UTC
ريح 4 عقدة من الشمال/الشمال الشرقي
الرؤية 10 كم أو أكثر
غيوم قليلة على ارتفاع 2000 قدم
نظرية الاحتمالات 30% :
مؤقت
من 04 الساعة 06 UTC إلى 04 الساعة 08 UTC
غيوم مفككة على ارتفاع 1400 قدم
أصبح
من 04 الساعة 08 UTC إلى 04 الساعة 11 UTC
ريح 10 عقدة من الشرق
أصبح
من 04 الساعة 18 UTC إلى 04 الساعة 20 UTC
ريح 3 عقدة من الشمال/الشمال الشرقي

TAF: LELC 040500Z 0406/0506 03004KT 9999 FEW020 TX30/0413Z TN22/0504Z PROB30 TEMPO 0406/0408 BKN014 BECMG 0408/0411 09010KT BECMG 0418/0420 02003KT

أرصاد الطقس والتوقعات من أكثر من 4000 مطار (تقارير الطقس للمطار METAR والتنبؤ بالطقس بالمطارTAF).

المحطات المتاحة هي النقط الصفراء والحمراء على الخريطة.

حرك المؤشر فوق النقطة لمعرفة اسم المحطة.

ثم انقر لمعرفة أرصاد وتوقعات الطقس.

لتغيير الخارطة: اضغط على الأزرار الخضراء مع رمز الصليب الأسود للتكبير. على الزر الأخضر مع شرطة للتصغير، أو على الأسهم الخضراء للخرائط المجاورة.


METAR-TAF: